SVMI/CCS METAR and TAF weather

Enter ICAO airport designator
Station Type Date Time Source
SVMI METAR 2020/07/10 21:02 UTC NOAA

SVMI 102102Z AUTO 08015KT NCD ///// Q1012


Station Type Date Time Source
SVMI Decoded METAR 2020/07/10 21:02 UTC NOAA

Caracas / Maiquetia Aerop. Intl. Simon Bolivar, Venezuela (SVMI) 10-36N 066-59W 48M
Jul 10, 2020 - 05:02 PM EDT / 2020.07.10 2102 UTC
Wind: from the E (080 degrees) at 17 MPH (15 KT):0
Pressure (altimeter): 29.88 in. Hg (1012 hPa)
ob: SVMI 102102Z AUTO 08015KT NCD ///// Q1012
cycle: 21

Station Type Date Time Source
SVMI TAF 2020/07/10 18:46 UTC NOAA

TAF SVMI 101600Z 1018/1118 09003KT 9999 SCT016 TX34/18ZTN24/08Z
BECMG 1018/1022 07006KT FEW016 SCT100

Example: see airport list